Selz, North Dakota
Current Conditions -  °F | °C
As of 9:55 PM on Saturday 24 Jan 2015 (Local Time) from K5H4 Reporting Station
Light Snow Light Snow  
Wind Chill: 13°   Ceiling: 100
Heat Index: 23°   Visibility: 1.5mi
Dew Point: 23°   Wind: 9mph
Humidity: 100%   Direction: 60°ENE
Pressure: 29.81"   Gusts: NA
Location:  47.7822°N, 99.8441°W
Report Text: K5H4 250355Z AUTO 06008KT 1 1/2SM -SN OVC001 M05/M05 A2981 RMK AO2 P0029
Loading
Personal Weather Stations






























Interactive Weather Map New forecast layout! Learn more

10-Day Weather Forecast

Advertisements
Track Severe Weather on mobile